createdAt,value
2022-09-21T00:01:15.071Z,1.02
2022-09-21T00:03:43.692Z,1.50
2022-09-21T00:06:13.272Z,1.70
2022-09-21T00:08:41.256Z,1.50
2022-09-21T00:11:13.099Z,1.70
2022-09-21T00:13:42.199Z,1.60
2022-09-21T00:16:11.646Z,1.65
2022-09-21T00:18:40.142Z,1.60
2022-09-21T00:21:09.162Z,1.65
2022-09-21T00:23:37.564Z,1.27
2022-09-21T00:26:07.183Z,1.50
2022-09-21T00:28:35.222Z,1.88
2022-09-21T00:31:04.478Z,3.20
2022-09-21T00:33:34.075Z,3.17
2022-09-21T00:36:06.092Z,4.55
2022-09-21T00:38:34.107Z,5.20
2022-09-21T00:41:02.184Z,4.83
2022-09-21T00:43:30.042Z,2.60
2022-09-21T00:46:01.547Z,2.20
2022-09-21T00:48:29.863Z,2.13
2022-09-21T00:51:03.025Z,2.22
2022-09-21T00:53:32.100Z,2.20
2022-09-21T00:56:00.907Z,2.38
2022-09-21T00:58:30.370Z,1.97
2022-09-21T01:01:00.491Z,1.90
2022-09-21T01:03:29.726Z,1.92
2022-09-21T01:05:58.964Z,2.25
2022-09-21T01:08:27.741Z,2.70
2022-09-21T01:11:21.198Z,2.63
2022-09-21T01:13:57.091Z,3.10
2022-09-21T01:16:28.234Z,3.00
2022-09-21T01:19:01.101Z,2.50
2022-09-21T01:21:32.521Z,2.58
2022-09-21T01:24:42.092Z,2.50
2022-09-21T01:27:27.862Z,2.77
2022-09-21T01:29:59.927Z,2.75
2022-09-21T01:32:29.564Z,2.40
2022-09-21T01:35:01.328Z,2.35
2022-09-21T01:37:34.277Z,2.33
2022-09-21T01:40:05.010Z,2.80
2022-09-21T01:42:34.522Z,2.58
2022-09-21T01:45:07.169Z,2.33
2022-09-21T01:47:35.414Z,2.10
2022-09-21T01:50:04.468Z,2.33
2022-09-21T01:52:35.632Z,2.78
2022-09-21T01:55:08.014Z,2.42
2022-09-21T01:57:40.177Z,2.30
2022-09-21T02:00:10.904Z,2.42
2022-09-21T02:02:42.805Z,2.42
2022-09-21T02:05:11.605Z,2.58
2022-09-21T02:07:40.431Z,2.30
2022-09-21T02:10:10.112Z,2.30
2022-09-21T02:12:38.332Z,2.25
2022-09-21T02:15:06.564Z,2.55
2022-09-21T02:17:49.836Z,2.40
2022-09-21T02:20:20.939Z,2.60
2022-09-21T02:23:02.437Z,2.30
2022-09-21T02:25:38.479Z,2.30
2022-09-21T02:28:09.614Z,2.63
2022-09-21T02:30:38.194Z,2.40
2022-09-21T02:33:12.576Z,2.53
2022-09-21T11:28:17.741Z,0.47
2022-09-21T11:31:11.844Z,0.55
2022-09-21T11:33:53.504Z,0.60
2022-09-21T11:36:29.502Z,0.80
2022-09-21T11:39:01.279Z,0.45
2022-09-21T11:41:54.967Z,0.40
2022-09-21T11:44:45.280Z,0.30
2022-09-21T11:47:34.449Z,0.88
2022-09-21T11:50:33.365Z,0.50
2022-09-21T11:53:20.484Z,0.38
2022-09-21T11:56:12.882Z,0.50
2022-09-21T11:58:45.133Z,0.50
2022-09-21T12:01:24.628Z,0.45
2022-09-21T12:04:04.485Z,0.30
2022-09-21T12:06:44.314Z,0.40
2022-09-21T12:09:34.395Z,0.30
2022-09-21T12:12:06.889Z,0.20
2022-09-21T12:17:16.332Z,0.40
2022-09-21T12:19:48.386Z,0.20
2022-09-21T12:22:19.519Z,0.43
2022-09-21T12:24:49.034Z,0.40
2022-09-21T12:27:24.462Z,0.40
2022-09-21T12:29:54.737Z,0.30
2022-09-21T12:32:27.024Z,0.57
2022-09-21T12:34:57.111Z,0.40
2022-09-21T12:37:28.055Z,0.50
2022-09-21T12:40:02.231Z,0.60
2022-09-21T12:42:34.508Z,0.63
2022-09-21T12:45:05.051Z,0.50
2022-09-21T12:47:42.772Z,0.30
2022-09-21T12:50:19.366Z,0.30
2022-09-21T12:52:47.236Z,0.52
2022-09-21T12:55:26.084Z,0.40
2022-09-21T12:58:15.211Z,0.52
2022-09-21T13:00:58.690Z,0.40
2022-09-21T13:03:32.100Z,0.20
2022-09-21T13:06:23.877Z,0.30
2022-09-21T13:08:51.903Z,0.47
2022-09-21T13:11:21.653Z,0.43
2022-09-21T13:13:52.848Z,0.65
2022-09-21T13:16:26.295Z,0.28
2022-09-21T13:18:59.053Z,0.30
2022-09-21T13:21:29.812Z,0.20
2022-09-21T13:23:58.934Z,0.20
2022-09-21T13:26:33.968Z,0.20
2022-09-21T13:29:07.787Z,0.22
2022-09-21T13:31:57.498Z,0.10
2022-09-21T13:34:32.618Z,0.10
2022-09-21T13:37:36.328Z,0.10
2022-09-21T13:40:40.190Z,0.20
2022-09-21T13:46:08.572Z,0.30
2022-09-21T13:48:37.338Z,0.30
2022-09-21T13:51:10.776Z,0.20
2022-09-21T13:53:41.985Z,0.10
2022-09-21T13:56:21.455Z,0.10
2022-09-21T13:58:52.786Z,0.20
2022-09-21T14:01:45.028Z,0.40
2022-09-21T14:04:20.842Z,0.30
2022-09-21T14:09:22.828Z,0.40
2022-09-21T14:11:57.493Z,0.15
2022-09-21T14:14:28.771Z,0.35
2022-09-21T14:16:58.644Z,0.30
2022-09-21T14:22:32.992Z,0.40
2022-09-21T14:25:27.277Z,0.30
2022-09-21T14:27:55.537Z,0.20
2022-09-21T14:30:25.066Z,0.20
2022-09-21T14:32:55.920Z,0.35
2022-09-21T14:35:28.152Z,0.30
2022-09-21T14:38:01.612Z,0.40
2022-09-21T14:40:33.674Z,0.20
2022-09-21T14:43:03.437Z,0.30
2022-09-21T14:45:42.468Z,0.30
2022-09-21T14:48:13.034Z,0.20
2022-09-21T14:50:44.857Z,0.28
2022-09-21T14:53:39.168Z,0.30
2022-09-21T14:56:22.444Z,0.47
2022-09-21T14:59:01.187Z,0.17
2022-09-21T15:01:41.321Z,0.20
2022-09-21T15:04:27.619Z,0.20
2022-09-21T15:07:21.014Z,0.38
2022-09-21T15:10:32.930Z,0.30
2022-09-21T15:13:07.100Z,0.22
2022-09-21T15:15:38.358Z,0.10
2022-09-21T15:18:17.872Z,0.10
2022-09-21T15:20:46.243Z,0.20
2022-09-21T15:23:19.289Z,0.10
2022-09-21T15:25:58.836Z,0.13
2022-09-21T15:28:28.298Z,0.20
2022-09-21T15:30:58.416Z,0.10
2022-09-21T15:34:07.772Z,0.20
2022-09-21T15:36:38.425Z,0.13
2022-09-21T15:39:06.685Z,0.30
2022-09-21T15:41:43.058Z,0.22
2022-09-21T15:44:15.880Z,0.20
2022-09-21T15:46:46.922Z,0.25
2022-09-21T15:49:21.966Z,0.20
2022-09-21T15:53:55.783Z,0.10
2022-09-21T15:56:25.778Z,0.10
2022-09-21T15:59:05.070Z,0.10
2022-09-21T16:01:32.778Z,0.30
2022-09-21T16:04:05.437Z,0.20
2022-09-21T16:06:37.887Z,0.10
2022-09-21T16:09:34.370Z,0.10
2022-09-21T16:12:02.462Z,0.10
2022-09-21T16:14:47.963Z,0.10
2022-09-21T16:17:24.730Z,0.20
2022-09-21T16:20:19.503Z,0.10
2022-09-21T16:22:49.016Z,0.20
2022-09-21T16:25:34.436Z,0.20
2022-09-21T16:28:03.816Z,0.10
2022-09-21T16:30:51.119Z,0.05
2022-09-21T16:33:41.017Z,0.25
2022-09-21T16:36:40.616Z,0.10
2022-09-21T16:39:15.524Z,0.15
2022-09-21T16:41:48.477Z,0.30
2022-09-21T16:44:20.777Z,0.03
2022-09-21T16:46:53.179Z,0.10
2022-09-21T16:49:24.805Z,0.20
2022-09-21T16:51:55.805Z,0.10
2022-09-21T16:54:25.167Z,0.20
2022-09-21T16:56:55.533Z,0.20
2022-09-21T16:59:23.362Z,0.20
2022-09-21T17:01:56.070Z,0.10
2022-09-21T17:04:25.971Z,0.03
2022-09-21T17:06:55.080Z,0.10
2022-09-21T17:09:29.152Z,0.15
2022-09-21T17:12:01.590Z,0.20
2022-09-21T17:14:35.225Z,0.40
2022-09-21T17:17:05.691Z,1.10
2022-09-21T17:19:33.608Z,1.05
2022-09-21T17:22:01.286Z,0.80
2022-09-21T17:24:49.365Z,0.50
2022-09-21T17:27:19.684Z,0.40
2022-09-21T17:29:49.891Z,0.30
2022-09-21T17:32:47.776Z,0.28
2022-09-21T17:35:18.559Z,0.40
2022-09-21T17:37:46.290Z,3.77
2022-09-21T17:40:15.405Z,1.05
2022-09-21T17:42:46.454Z,0.40
2022-09-21T17:45:19.092Z,0.55
2022-09-21T17:47:50.244Z,0.47
2022-09-21T17:50:24.190Z,0.32
2022-09-21T17:53:10.057Z,0.70
2022-09-21T17:55:39.165Z,26.65
2022-09-21T17:58:14.960Z,32.90
2022-09-21T18:00:50.372Z,13.63
2022-09-21T18:03:22.450Z,4.53
2022-09-21T18:05:52.744Z,3.83
2022-09-21T18:08:20.797Z,3.08
2022-09-21T18:10:56.876Z,2.20
2022-09-21T18:13:29.502Z,1.50
2022-09-21T18:16:06.323Z,1.55
2022-09-21T18:18:46.778Z,1.52
2022-09-21T18:21:18.245Z,1.50
2022-09-21T18:23:59.535Z,2.90
2022-09-21T18:26:27.520Z,7.97
2022-09-21T18:28:58.225Z,6.20
2022-09-21T18:31:44.939Z,4.60
2022-09-21T18:34:29.186Z,4.82
2022-09-21T18:37:00.370Z,5.47
2022-09-21T18:39:35.540Z,5.75
2022-09-21T18:42:12.832Z,6.30
2022-09-21T18:44:44.254Z,8.45
2022-09-21T18:47:16.275Z,8.05
2022-09-21T18:49:51.285Z,7.35
2022-09-21T18:52:32.161Z,7.23
2022-09-21T18:55:00.101Z,7.53
2022-09-21T18:57:32.271Z,8.30
2022-09-21T19:00:00.496Z,8.20
2022-09-21T19:02:29.219Z,12.93
2022-09-21T19:04:59.182Z,15.00
2022-09-21T19:07:30.769Z,16.70
2022-09-21T19:10:06.876Z,16.02
2022-09-21T19:12:48.264Z,16.52
2022-09-21T19:15:42.295Z,19.85
2022-09-21T19:18:20.106Z,15.35
2022-09-21T19:21:00.060Z,14.10
2022-09-21T19:23:45.259Z,14.15
2022-09-21T19:26:16.442Z,14.43
2022-09-21T19:28:55.500Z,13.02
2022-09-21T19:31:23.423Z,9.20
2022-09-21T19:33:51.799Z,8.77
2022-09-21T19:36:21.309Z,7.28
2022-09-21T19:38:49.766Z,7.13
2022-09-21T19:41:32.310Z,8.18
2022-09-21T19:44:07.333Z,8.23
2022-09-21T19:46:39.322Z,9.27
2022-09-21T19:49:13.896Z,8.20
2022-09-21T19:51:46.812Z,6.87
2022-09-21T19:54:33.832Z,6.30
2022-09-21T19:57:19.692Z,6.30
2022-09-21T19:59:48.336Z,6.03
2022-09-21T20:02:18.483Z,5.72
2022-09-21T20:04:50.750Z,6.82
2022-09-21T20:07:27.555Z,7.07
2022-09-21T20:10:06.515Z,8.57
2022-09-21T20:12:38.438Z,8.30
2022-09-21T20:15:12.914Z,8.57
2022-09-21T20:17:45.982Z,12.68
2022-09-21T20:20:17.942Z,16.07
2022-09-21T20:22:47.379Z,19.73
2022-09-21T20:25:21.748Z,20.00
2022-09-21T20:27:51.492Z,18.90
2022-09-21T20:30:22.230Z,15.73
2022-09-21T20:32:52.346Z,13.15
2022-09-21T20:35:21.957Z,12.30
2022-09-21T20:37:51.763Z,10.80
2022-09-21T20:40:20.535Z,10.50
2022-09-21T20:42:48.330Z,10.57
2022-09-21T20:45:16.235Z,9.90
2022-09-21T20:47:44.001Z,8.85
2022-09-21T20:50:13.449Z,8.10
2022-09-21T20:52:41.878Z,8.70
2022-09-21T20:55:13.412Z,8.50
2022-09-21T20:57:41.497Z,8.32
2022-09-21T21:00:11.222Z,7.85
2022-09-21T21:02:38.973Z,7.85
2022-09-21T21:05:07.986Z,7.33
2022-09-21T21:07:36.539Z,7.65
2022-09-21T21:10:04.713Z,6.75
2022-09-21T21:12:33.893Z,6.82
2022-09-21T21:15:01.626Z,6.60
2022-09-21T21:17:29.364Z,6.07
2022-09-21T21:19:57.230Z,6.32
2022-09-21T21:22:24.949Z,5.97
2022-09-21T21:24:52.805Z,6.43
2022-09-21T21:27:22.819Z,6.22
2022-09-21T21:29:52.869Z,5.78
2022-09-21T21:32:23.097Z,5.45
2022-09-21T21:34:51.216Z,5.63
2022-09-21T21:37:19.880Z,6.57
2022-09-21T21:39:47.708Z,6.45
2022-09-21T21:42:15.730Z,6.70
2022-09-21T21:44:43.726Z,7.28
2022-09-21T21:47:38.166Z,7.40
2022-09-21T21:50:00.760Z,6.77
2022-09-21T21:52:28.714Z,6.40
2022-09-21T21:54:56.371Z,7.75
2022-09-21T21:57:24.167Z,6.90
2022-09-21T21:59:52.002Z,6.28
2022-09-21T22:02:21.255Z,6.00
2022-09-21T22:04:49.064Z,5.47
2022-09-21T22:07:16.725Z,5.18
2022-09-21T22:09:44.652Z,5.32
2022-09-21T22:12:12.547Z,5.47
2022-09-21T22:14:40.411Z,5.32
2022-09-21T22:17:08.151Z,5.88
2022-09-21T22:19:37.932Z,5.72
2022-09-21T22:22:06.114Z,5.87
2022-09-21T22:24:33.782Z,6.10
2022-09-21T22:27:01.425Z,5.63
2022-09-21T22:29:29.141Z,5.77
2022-09-21T22:31:56.791Z,5.55
2022-09-21T22:34:24.490Z,6.07
2022-09-21T22:36:53.866Z,5.57
2022-09-21T22:39:21.562Z,5.40
2022-09-21T22:41:49.246Z,5.18
2022-09-21T22:44:17.255Z,4.78
2022-09-21T22:46:44.948Z,4.50
2022-09-21T22:49:12.635Z,4.00
2022-09-21T22:51:40.351Z,3.83
2022-09-21T22:54:09.438Z,3.53
2022-09-21T22:56:37.233Z,3.75
2022-09-21T22:59:06.060Z,3.70
2022-09-21T23:01:35.218Z,3.40
2022-09-21T23:04:05.055Z,3.10
2022-09-21T23:06:35.086Z,3.33
2022-09-21T23:09:05.161Z,2.90
2022-09-21T23:11:35.531Z,3.20
2022-09-21T23:14:03.592Z,3.03
2022-09-21T23:16:31.650Z,2.97
2022-09-21T23:18:59.625Z,2.70
2022-09-21T23:21:29.396Z,2.50
2022-09-21T23:23:59.729Z,2.38
2022-09-21T23:26:28.502Z,2.45
2022-09-21T23:28:59.316Z,2.47
2022-09-21T23:31:27.777Z,2.38
2022-09-21T23:33:57.217Z,2.55
2022-09-21T23:36:29.594Z,2.28
2022-09-21T23:38:57.658Z,2.28
2022-09-21T23:41:27.129Z,2.33
2022-09-21T23:43:55.386Z,2.57
2022-09-21T23:46:26.227Z,2.13
2022-09-21T23:48:54.090Z,2.25
2022-09-21T23:51:22.065Z,2.13
2022-09-21T23:53:49.878Z,2.13
2022-09-21T23:56:19.333Z,1.95
2022-09-21T23:58:48.082Z,2.05
